Time;durP1;ratioP1;P1;durP2;ratioP2;P2;SDS_P1;SDS_P2;PMS_P1;PMS_P2;Temp;Humidity;BMP_temperature;BMP_pressure;BME280_temperature;BME280_humidity;BME280_pressure;Samples;Min_cycle;Max_cycle;Signal;HPM_P1;HPM_P2
2022/09/23 00:00:12;;;;;;;3.80;2.97;;;11.80;74.30;;;;;;5055848;28;20463;-69
2022/09/23 00:02:39;;;;;;;3.95;3.20;;;11.80;74.20;;;;;;5062773;28;20423;-69
2022/09/23 00:05:07;;;;;;;4.38;3.00;;;11.80;74.20;;;;;;5064565;28;20442;-69
2022/09/23 00:07:37;;;;;;;3.30;3.00;;;11.70;73.70;;;;;;5057700;28;20927;-69
2022/09/23 00:10:04;;;;;;;3.50;2.90;;;11.70;73.80;;;;;;5049274;28;20885;-69
2022/09/23 00:12:31;;;;;;;3.87;2.80;;;11.60;74.10;;;;;;5048787;28;20421;-69
2022/09/23 00:14:58;;;;;;;3.17;2.88;;;11.60;73.80;;;;;;5054139;28;20428;-70
2022/09/23 00:17:26;;;;;;;3.20;2.90;;;11.60;74.00;;;;;;5056573;28;20428;-69
2022/09/23 00:19:54;;;;;;;3.50;2.72;;;11.60;74.60;;;;;;5061147;28;20455;-70
2022/09/23 00:22:21;;;;;;;4.65;3.10;;;11.50;74.70;;;;;;5068497;28;20445;-69
2022/09/23 00:24:49;;;;;;;3.90;3.00;;;11.50;75.50;;;;;;5067105;28;20435;-69
2022/09/23 00:27:16;;;;;;;4.15;3.05;;;11.50;75.50;;;;;;5059767;28;20466;-70
2022/09/23 00:29:42;;;;;;;3.35;3.00;;;11.50;75.10;;;;;;5067151;28;20433;-69
2022/09/23 00:32:09;;;;;;;4.80;2.70;;;11.50;74.90;;;;;;5058189;28;20514;-70
2022/09/23 00:34:36;;;;;;;3.63;3.20;;;11.40;75.10;;;;;;5066549;28;20429;-69
2022/09/23 00:37:03;;;;;;;4.50;3.50;;;11.40;75.50;;;;;;5059760;28;20422;-69
2022/09/23 00:39:30;;;;;;;3.47;3.17;;;11.40;75.40;;;;;;5068348;28;20415;-69
2022/09/23 00:41:58;;;;;;;3.95;2.97;;;11.40;75.80;;;;;;5078366;22;20986;-68
2022/09/23 00:44:46;;;;;;;3.58;3.20;;;11.40;75.90;;;;;;5053645;28;20455;-68
2022/09/23 00:47:18;;;;;;;3.08;2.75;;;11.30;75.80;;;;;;5059580;28;20427;-68
2022/09/23 00:49:48;;;;;;;3.28;2.97;;;11.40;76.50;;;;;;5063677;28;20415;-68
2022/09/23 00:52:20;;;;;;;3.30;3.00;;;11.30;76.30;;;;;;5057681;28;20430;-68
2022/09/23 00:54:47;;;;;;;3.47;2.70;;;11.30;77.10;;;;;;5059205;28;20415;-68
2022/09/23 00:57:18;;;;;;;4.30;3.03;;;11.40;77.00;;;;;;5061917;28;20577;-68
2022/09/23 00:59:45;;;;;;;3.30;3.00;;;11.40;76.60;;;;;;5062464;28;20502;-68
2022/09/23 01:02:15;;;;;;;3.10;2.80;;;11.40;76.80;;;;;;5059994;28;20976;-69
2022/09/23 01:04:42;;;;;;;3.10;2.90;;;11.40;77.10;;;;;;5059977;28;20432;-68
2022/09/23 01:07:09;;;;;;;3.10;2.90;;;11.30;77.20;;;;;;5043048;28;20537;-68
2022/09/23 01:09:36;;;;;;;3.60;3.10;;;11.30;77.20;;;;;;5042405;28;20412;-68
2022/09/23 01:12:20;;;;;;;3.50;3.20;;;11.30;76.60;;;;;;5056829;28;20478;-68
2022/09/23 01:14:55;;;;;;;3.75;2.78;;;11.30;76.50;;;;;;5060717;28;20582;-68
2022/09/23 01:17:29;;;;;;;4.00;2.90;;;11.30;77.20;;;;;;5061161;28;20722;-68
2022/09/23 01:20:15;;;;;;;3.40;2.93;;;11.20;76.90;;;;;;5062370;28;20425;-68
2022/09/23 01:22:47;;;;;;;3.78;3.40;;;11.20;76.60;;;;;;5060576;28;20431;-67
2022/09/23 01:25:49;;;;;;;3.67;3.30;;;11.20;77.00;;;;;;5046123;28;20442;-67
2022/09/23 01:28:35;;;;;;;4.68;3.10;;;11.20;77.30;;;;;;5045101;28;20434;-67
2022/09/23 01:31:09;;;;;;;3.88;3.30;;;11.10;77.50;;;;;;5060326;28;20908;-67
2022/09/23 01:33:44;;;;;;;4.70;3.40;;;11.10;77.70;;;;;;5057577;28;20431;-67
2022/09/23 01:36:21;;;;;;;4.28;2.92;;;11.10;78.00;;;;;;5063668;28;20682;-68
2022/09/23 01:38:57;;;;;;;4.15;3.20;;;11.10;78.50;;;;;;5062797;28;20499;-68
2022/09/23 01:41:36;;;;;;;5.20;3.13;;;11.00;78.50;;;;;;5058626;28;20437;-68
2022/09/23 01:44:08;;;;;;;3.53;3.22;;;11.00;78.50;;;;;;5040984;28;20417;-68
2022/09/23 01:46:43;;;;;;;3.70;3.40;;;11.00;78.70;;;;;;5049495;28;20751;-68
2022/09/23 01:49:17;;;;;;;4.43;3.50;;;11.00;78.70;;;;;;5062248;28;20423;-68
2022/09/23 01:51:49;;;;;;;3.55;3.25;;;11.00;78.70;;;;;;5061966;28;20424;-68
2022/09/23 01:54:22;;;;;;;4.30;3.30;;;11.00;78.90;;;;;;5040550;28;20764;-68
2022/09/23 01:56:53;;;;;;;4.10;3.70;;;10.90;78.70;;;;;;5053571;28;20438;-68
2022/09/23 01:59:25;;;;;;;3.60;3.10;;;10.90;79.10;;;;;;5060690;28;20541;-68
2022/09/23 02:01:58;;;;;;;3.50;3.20;;;10.90;78.70;;;;;;5063193;28;20431;-68
2022/09/23 02:04:29;;;;;;;3.67;3.38;;;10.90;78.80;;;;;;5062262;28;20434;-67
2022/09/23 02:07:01;;;;;;;4.00;3.20;;;10.80;79.20;;;;;;5066196;28;20423;-67
2022/09/23 02:09:36;;;;;;;3.30;3.00;;;10.80;79.70;;;;;;5061502;28;20913;-68
2022/09/23 02:12:08;;;;;;;4.28;3.38;;;10.80;80.10;;;;;;5060466;28;20448;-67
2022/09/23 02:14:42;;;;;;;3.72;3.42;;;10.80;79.20;;;;;;5046776;28;20914;-67
2022/09/23 02:17:14;;;;;;;3.72;3.30;;;10.80;78.80;;;;;;5052464;28;20524;-67
2022/09/23 02:19:46;;;;;;;4.07;3.67;;;10.70;78.80;;;;;;5056142;28;20423;-67
2022/09/23 02:22:18;;;;;;;3.80;3.30;;;10.70;79.20;;;;;;5065379;28;20502;-68
2022/09/23 02:24:46;;;;;;;4.03;3.60;;;10.70;79.30;;;;;;5064989;28;20420;-68
2022/09/23 02:27:22;;;;;;;3.92;3.20;;;10.70;79.60;;;;;;5063540;28;20441;-67
2022/09/23 02:29:56;;;;;;;3.60;3.03;;;10.70;79.90;;;;;;5046979;28;20467;-68
2022/09/23 02:32:31;;;;;;;3.70;3.40;;;10.60;79.70;;;;;;5055085;28;20893;-67
2022/09/23 02:35:04;;;;;;;3.90;3.50;;;10.60;79.80;;;;;;5063855;28;20426;-68
2022/09/23 02:37:38;;;;;;;4.10;3.50;;;10.60;80.00;;;;;;5063229;28;20508;-67
2022/09/23 02:40:15;;;;;;;3.55;3.20;;;10.50;79.80;;;;;;5065921;28;20828;-70
2022/09/23 02:42:49;;;;;;;4.22;3.20;;;10.50;80.30;;;;;;5052547;28;20523;-69
2022/09/23 02:45:16;;;;;;;3.58;3.28;;;10.50;80.10;;;;;;5049034;28;20419;-68
2022/09/23 02:47:51;;;;;;;4.57;3.40;;;10.50;79.90;;;;;;5064675;28;20521;-68
2022/09/23 02:50:18;;;;;;;3.23;2.93;;;10.50;80.50;;;;;;5065280;28;20420;-67
2022/09/23 02:52:46;;;;;;;3.50;3.20;;;10.50;80.10;;;;;;5065178;28;20514;-67
2022/09/23 02:55:17;;;;;;;3.40;3.00;;;10.40;80.00;;;;;;5065278;28;20427;-67
2022/09/23 02:57:45;;;;;;;3.60;3.30;;;10.40;80.10;;;;;;5063911;28;20451;-67
2022/09/23 03:00:14;;;;;;;3.80;2.80;;;10.40;80.30;;;;;;5045560;28;20440;-67
2022/09/23 03:03:05;;;;;;;4.90;2.88;;;10.40;79.60;;;;;;5055738;28;20866;-69
2022/09/23 03:05:38;;;;;;;3.42;3.13;;;10.40;79.90;;;;;;5063665;28;20430;-68
2022/09/23 03:08:24;;;;;;;3.38;3.08;;;10.40;79.90;;;;;;5046368;28;20908;-67
2022/09/23 03:10:58;;;;;;;3.95;2.88;;;10.40;79.60;;;;;;5059361;28;20443;-67
2022/09/23 03:13:31;;;;;;;3.60;2.90;;;10.30;79.20;;;;;;5048934;28;20405;-67
2022/09/23 03:16:09;;;;;;;3.40;3.00;;;10.30;79.90;;;;;;5065498;28;20415;-68
2022/09/23 03:18:42;;;;;;;3.57;3.27;;;10.30;79.90;;;;;;5062062;28;20529;-68
2022/09/23 03:21:14;;;;;;;3.42;3.08;;;10.30;79.90;;;;;;5045606;28;20413;-68
2022/09/23 03:23:42;;;;;;;3.38;3.08;;;10.30;80.90;;;;;;5047205;28;20511;-67
2022/09/23 03:26:13;;;;;;;5.30;3.10;;;10.30;80.20;;;;;;5064448;28;20884;-67
2022/09/23 03:28:42;;;;;;;2.90;2.70;;;10.30;80.40;;;;;;5061095;28;20503;-67
2022/09/23 03:31:11;;;;;;;3.30;3.00;;;10.20;79.70;;;;;;5065005;28;20412;-67
2022/09/23 03:33:45;;;;;;;3.30;2.90;;;10.20;79.80;;;;;;5062489;28;20890;-68
2022/09/23 03:39:05;;;;;;;3.42;2.90;;;10.30;81.50;;;;;;5062918;28;20513;-67
2022/09/23 03:41:35;;;;;;;3.72;3.42;;;10.20;80.50;;;;;;5062140;28;20431;-68
2022/09/23 03:44:03;;;;;;;5.00;3.40;;;10.20;80.80;;;;;;5041552;28;20436;-68
2022/09/23 03:46:33;;;;;;;3.60;3.10;;;10.30;81.50;;;;;;5044487;28;20484;-68
2022/09/23 03:49:10;;;;;;;3.90;3.50;;;10.20;81.80;;;;;;5058663;28;20434;-68
2022/09/23 03:51:37;;;;;;;3.80;3.40;;;10.20;81.20;;;;;;5059355;28;20475;-68
2022/09/23 03:54:04;;;;;;;3.85;3.40;;;10.20;81.60;;;;;;5057606;28;20517;-68
2022/09/23 03:56:31;;;;;;;3.60;3.30;;;10.20;81.20;;;;;;5062841;28;20416;-68
2022/09/23 03:58:58;;;;;;;3.72;3.35;;;10.20;80.90;;;;;;5063416;28;20415;-68
2022/09/23 04:01:24;;;;;;;3.80;3.50;;;10.20;81.00;;;;;;5062479;28;20463;-68
2022/09/23 04:03:52;;;;;;;3.70;3.40;;;10.20;80.80;;;;;;5057360;28;20431;-67
2022/09/23 04:06:21;;;;;;;5.63;3.50;;;10.20;81.00;;;;;;5062874;28;20424;-67
2022/09/23 04:08:48;;;;;;;3.90;3.50;;;10.20;80.70;;;;;;5053152;28;20917;-67
2022/09/23 04:11:15;;;;;;;4.15;3.45;;;10.20;81.00;;;;;;5059211;28;20433;-67
2022/09/23 04:13:41;;;;;;;3.90;3.60;;;10.20;81.20;;;;;;5041544;28;20446;-67
2022/09/23 04:16:08;;;;;;;5.20;3.63;;;10.10;80.50;;;;;;5053053;28;20500;-67
2022/09/23 04:18:35;;;;;;;4.00;3.50;;;10.10;80.50;;;;;;5051132;28;20438;-67
2022/09/23 04:21:02;;;;;;;3.83;3.53;;;10.10;80.60;;;;;;5053717;28;20777;-67
2022/09/23 04:23:30;;;;;;;3.92;3.58;;;10.10;80.80;;;;;;5056945;28;20795;-67
2022/09/23 04:25:56;;;;;;;4.15;3.75;;;10.10;80.40;;;;;;5045383;28;20433;-67
2022/09/23 04:28:23;;;;;;;4.03;3.72;;;10.10;80.70;;;;;;5065353;28;20415;-67
2022/09/23 04:30:50;;;;;;;4.13;3.83;;;10.00;80.90;;;;;;5071068;28;20499;-67
2022/09/23 04:33:17;;;;;;;4.10;3.70;;;10.00;81.10;;;;;;5055379;28;20437;-67
2022/09/23 04:35:44;;;;;;;4.95;4.20;;;10.00;81.20;;;;;;5056812;28;20904;-67
2022/09/23 04:38:11;;;;;;;5.70;4.25;;;10.00;81.60;;;;;;5063488;28;21123;-67
2022/09/23 04:40:39;;;;;;;6.13;4.10;;;10.00;80.80;;;;;;5062379;28;20416;-67
2022/09/23 04:43:06;;;;;;;6.35;4.70;;;10.00;81.30;;;;;;5057407;28;20698;-67
2022/09/23 04:45:33;;;;;;;5.47;4.60;;;9.90;80.80;;;;;;5061831;28;20750;-67
2022/09/23 04:48:00;;;;;;;6.00;4.70;;;9.90;82.10;;;;;;5060381;28;20420;-67
2022/09/23 04:50:27;;;;;;;6.30;4.80;;;9.80;82.60;;;;;;5057410;28;20574;-68
2022/09/23 04:52:55;;;;;;;5.68;4.40;;;9.80;82.20;;;;;;5054088;28;20427;-67
2022/09/23 04:55:22;;;;;;;4.73;4.20;;;9.80;82.10;;;;;;5057649;28;20501;-68
2022/09/23 04:57:50;;;;;;;5.70;4.55;;;9.80;81.90;;;;;;5062946;28;20435;-67
2022/09/23 05:00:17;;;;;;;4.50;3.65;;;9.80;81.90;;;;;;5058425;28;20758;-67
2022/09/23 05:02:45;;;;;;;4.10;3.50;;;9.70;81.60;;;;;;5062118;28;20770;-67
2022/09/23 05:05:12;;;;;;;4.13;3.72;;;9.70;82.00;;;;;;5062643;28;20786;-67
2022/09/23 05:07:39;;;;;;;4.45;3.88;;;9.70;81.90;;;;;;5063406;28;20415;-67
2022/09/23 05:10:07;;;;;;;5.15;4.15;;;9.70;81.70;;;;;;5062217;28;20798;-67
2022/09/23 05:12:34;;;;;;;4.20;3.80;;;9.80;82.30;;;;;;5060287;28;20412;-67
2022/09/23 05:15:02;;;;;;;5.13;3.80;;;9.80;82.00;;;;;;5070413;28;20429;-67
2022/09/23 05:17:30;;;;;;;4.70;4.20;;;9.80;81.70;;;;;;5052779;28;20417;-67
2022/09/23 05:19:57;;;;;;;4.90;3.90;;;9.80;81.90;;;;;;5058540;28;20442;-67
2022/09/23 05:22:25;;;;;;;4.60;3.63;;;9.70;82.20;;;;;;5050745;28;20920;-67
2022/09/23 05:24:52;;;;;;;4.13;3.50;;;9.70;81.50;;;;;;5062279;28;20428;-67
2022/09/23 05:27:19;;;;;;;4.10;3.70;;;9.70;81.60;;;;;;5062243;28;20757;-68
2022/09/23 05:29:46;;;;;;;4.00;3.67;;;9.70;81.60;;;;;;5074623;28;20892;-67
2022/09/23 05:32:15;;;;;;;4.68;3.72;;;9.70;81.50;;;;;;5061939;28;20517;-68
2022/09/23 05:34:41;;;;;;;4.20;3.80;;;9.70;81.50;;;;;;5061119;28;20427;-67
2022/09/23 05:37:09;;;;;;;3.92;3.53;;;9.70;82.30;;;;;;5064316;28;20415;-68
2022/09/23 05:39:36;;;;;;;6.25;3.58;;;9.70;81.00;;;;;;5067369;28;20425;-67
2022/09/23 05:42:02;;;;;;;5.28;3.40;;;9.70;80.80;;;;;;5058937;28;20667;-68
2022/09/23 05:44:29;;;;;;;5.60;3.80;;;9.70;81.20;;;;;;5053067;28;20433;-68
2022/09/23 05:46:56;;;;;;;3.60;3.30;;;9.70;81.20;;;;;;5063652;28;20507;-68
2022/09/23 05:49:24;;;;;;;5.70;3.70;;;9.70;80.70;;;;;;5051369;28;20449;-68
2022/09/23 05:51:51;;;;;;;4.25;3.85;;;9.70;80.70;;;;;;5056766;28;20949;-68
2022/09/23 05:54:18;;;;;;;4.68;3.70;;;9.80;81.00;;;;;;5062504;28;20437;-68
2022/09/23 05:56:45;;;;;;;4.95;4.03;;;9.80;81.20;;;;;;5072352;28;20429;-68
2022/09/23 05:59:12;;;;;;;4.65;3.90;;;9.80;81.50;;;;;;5067622;28;20433;-68
2022/09/23 06:01:39;;;;;;;3.97;3.58;;;9.80;81.20;;;;;;5069793;28;20420;-68
2022/09/23 06:04:11;;;;;;;4.30;3.90;;;9.80;81.00;;;;;;5066961;28;20580;-67
2022/09/23 06:06:41;;;;;;;4.00;3.70;;;9.80;81.00;;;;;;5072083;28;20450;-67
2022/09/23 06:09:12;;;;;;;3.65;3.35;;;9.90;81.70;;;;;;5064533;28;21790;-68
2022/09/23 06:11:40;;;;;;;4.50;4.18;;;9.90;80.50;;;;;;5052712;28;20504;-68
2022/09/23 06:14:08;;;;;;;4.20;3.80;;;9.90;80.00;;;;;;5062833;28;20420;-68
2022/09/23 06:16:36;;;;;;;4.82;3.83;;;10.00;80.10;;;;;;5064602;28;20424;-68
2022/09/23 06:19:05;;;;;;;3.85;3.55;;;10.00;79.80;;;;;;5057857;28;20512;-68
2022/09/23 06:21:32;;;;;;;4.28;3.70;;;10.10;79.30;;;;;;5058436;28;20439;-68
2022/09/23 06:24:01;;;;;;;4.27;3.80;;;10.10;79.40;;;;;;5074580;28;20423;-68
2022/09/23 06:26:32;;;;;;;5.40;4.10;;;10.10;79.60;;;;;;5060801;28;20501;-68
2022/09/23 06:29:01;;;;;;;4.65;3.60;;;10.20;78.60;;;;;;5067040;28;20426;-68
2022/09/23 06:31:28;;;;;;;4.30;3.90;;;10.20;79.10;;;;;;5066501;28;20986;-68
2022/09/23 06:33:55;;;;;;;3.75;3.33;;;10.30;78.90;;;;;;5062971;28;20436;-68
2022/09/23 06:36:22;;;;;;;4.68;3.92;;;10.30;78.60;;;;;;5077851;28;20905;-68
2022/09/23 06:38:49;;;;;;;4.10;3.80;;;10.30;78.60;;;;;;5071041;28;20429;-68
2022/09/23 06:41:19;;;;;;;4.50;3.78;;;10.30;78.20;;;;;;5058682;28;20432;-68
2022/09/23 06:43:46;;;;;;;3.90;3.60;;;10.40;78.20;;;;;;5065825;28;20423;-68
2022/09/23 06:46:15;;;;;;;5.30;4.28;;;10.40;78.30;;;;;;5065249;28;20420;-68
2022/09/23 06:48:43;;;;;;;5.25;4.00;;;10.50;77.70;;;;;;5060122;28;20868;-67
2022/09/23 06:51:17;;;;;;;4.30;3.90;;;10.60;77.00;;;;;;5064558;28;20516;-68
2022/09/23 06:53:45;;;;;;;3.90;3.60;;;10.60;76.80;;;;;;5065115;28;20836;-68
2022/09/23 06:56:12;;;;;;;4.00;3.70;;;10.60;76.20;;;;;;5064469;28;20431;-68
2022/09/23 06:58:40;;;;;;;4.13;3.73;;;10.60;75.90;;;;;;5050021;28;20888;-68
2022/09/23 07:01:09;;;;;;;5.28;4.00;;;10.70;76.20;;;;;;5057899;28;20516;-68
2022/09/23 07:03:37;;;;;;;4.18;3.70;;;10.80;75.40;;;;;;5062061;28;20504;-68
2022/09/23 07:06:05;;;;;;;4.50;3.90;;;10.90;74.50;;;;;;5063382;28;20913;-68
2022/09/23 07:08:33;;;;;;;4.10;3.70;;;10.90;74.90;;;;;;5072436;28;20430;-68
2022/09/23 07:11:01;;;;;;;3.80;3.50;;;11.00;75.10;;;;;;5063587;28;20924;-68
2022/09/23 07:13:31;;;;;;;4.05;3.75;;;11.30;74.60;;;;;;5062159;28;20412;-68
2022/09/23 07:16:00;;;;;;;3.95;3.55;;;11.50;73.60;;;;;;5059990;28;20838;-68
2022/09/23 07:18:29;;;;;;;3.90;3.60;;;11.60;72.60;;;;;;5053687;28;20944;-68
2022/09/23 07:20:57;;;;;;;4.20;3.80;;;11.70;72.20;;;;;;5059431;28;20438;-67
2022/09/23 07:23:25;;;;;;;3.75;3.40;;;11.90;71.70;;;;;;5078461;22;20459;-68
2022/09/23 07:25:53;;;;;;;3.75;3.45;;;12.10;70.90;;;;;;5041394;22;20446;-69
2022/09/23 07:28:20;;;;;;;3.70;3.40;;;12.20;70.50;;;;;;5027775;28;20470;-69
2022/09/23 07:30:47;;;;;;;4.20;3.70;;;12.30;69.70;;;;;;5029440;28;20427;-69
2022/09/23 07:33:15;;;;;;;4.20;3.80;;;12.50;69.70;;;;;;5023264;28;20430;-69
2022/09/23 07:35:42;;;;;;;3.70;3.33;;;12.70;68.60;;;;;;5024765;28;20802;-68
2022/09/23 07:38:10;;;;;;;5.30;3.40;;;12.80;68.00;;;;;;5028729;28;20450;-68
2022/09/23 07:40:38;;;;;;;4.38;3.70;;;12.90;67.90;;;;;;5029163;28;20437;-68
2022/09/23 07:43:05;;;;;;;5.68;3.70;;;13.10;67.60;;;;;;5009341;28;20863;-68
2022/09/23 07:45:32;;;;;;;4.65;3.30;;;13.30;66.50;;;;;;5024763;28;20941;-69
2022/09/23 07:48:00;;;;;;;4.65;3.50;;;13.40;65.90;;;;;;5020856;28;20452;-70
2022/09/23 07:50:32;;;;;;;4.20;3.70;;;13.60;67.30;;;;;;5014549;28;20443;-70
2022/09/23 07:53:01;;;;;;;4.95;3.90;;;13.70;65.60;;;;;;5016287;28;20452;-71
2022/09/23 07:55:28;;;;;;;3.38;3.17;;;13.80;65.00;;;;;;5023630;28;20504;-69
2022/09/23 07:57:55;;;;;;;4.50;3.90;;;13.70;65.30;;;;;;5027529;28;20427;-68
2022/09/23 08:00:21;;;;;;;3.63;3.08;;;13.80;64.60;;;;;;5029098;28;20426;-69
2022/09/23 08:02:50;;;;;;;5.00;3.50;;;13.80;65.20;;;;;;5019728;28;20427;-69
2022/09/23 08:05:17;;;;;;;3.50;3.20;;;13.80;64.80;;;;;;5020408;28;20921;-69
2022/09/23 08:07:48;;;;;;;4.40;3.17;;;14.00;64.40;;;;;;5028797;28;20434;-68
2022/09/23 08:10:17;;;;;;;4.68;3.20;;;14.10;63.40;;;;;;5014533;28;20431;-68
2022/09/23 08:12:45;;;;;;;4.10;3.42;;;14.10;63.00;;;;;;5019643;28;20796;-68
2022/09/23 08:15:12;;;;;;;3.87;3.57;;;14.10;63.20;;;;;;5019461;28;21073;-71
2022/09/23 08:17:38;;;;;;;4.47;3.40;;;14.10;63.30;;;;;;5027750;28;20414;-70
2022/09/23 08:20:06;;;;;;;4.53;3.63;;;14.10;63.50;;;;;;5026328;28;20431;-69
2022/09/23 08:22:33;;;;;;;4.13;3.20;;;14.10;63.50;;;;;;5024830;28;20908;-70
2022/09/23 08:25:01;;;;;;;3.80;3.20;;;14.00;63.70;;;;;;5024240;28;20432;-70
2022/09/23 08:27:28;;;;;;;4.20;3.80;;;14.00;64.00;;;;;;5026779;28;20910;-70
2022/09/23 08:29:55;;;;;;;3.80;3.40;;;13.90;64.20;;;;;;5018100;28;20421;-69
2022/09/23 08:32:21;;;;;;;4.97;3.72;;;14.00;64.30;;;;;;5023094;28;20955;-69
2022/09/23 08:34:48;;;;;;;4.30;3.58;;;13.90;64.20;;;;;;5021366;28;20446;-70
2022/09/23 08:37:15;;;;;;;3.97;3.58;;;13.90;64.70;;;;;;5029445;28;20415;-69
2022/09/23 08:39:42;;;;;;;6.00;3.83;;;14.00;64.00;;;;;;5026333;28;20430;-69
2022/09/23 08:42:18;;;;;;;4.55;3.90;;;14.00;64.70;;;;;;5027163;28;20531;-69
2022/09/23 08:44:50;;;;;;;4.27;3.50;;;14.00;64.60;;;;;;5021026;28;20448;-69
2022/09/23 08:47:23;;;;;;;3.80;3.40;;;14.10;64.20;;;;;;5019741;28;20427;-69
2022/09/23 08:50:08;;;;;;;4.50;3.30;;;14.10;64.10;;;;;;5019196;28;20434;-69
2022/09/23 08:52:42;;;;;;;3.50;3.20;;;14.20;64.30;;;;;;5025743;28;20813;-69
2022/09/23 08:55:12;;;;;;;4.30;3.30;;;14.40;63.90;;;;;;5015486;28;20429;-70
2022/09/23 08:57:58;;;;;;;3.70;3.13;;;14.70;62.70;;;;;;5029485;28;20921;-70
2022/09/23 09:00:33;;;;;;;4.78;3.70;;;15.00;61.90;;;;;;5016025;28;20459;-69
2022/09/23 09:03:00;;;;;;;4.22;3.70;;;15.20;61.30;;;;;;5025769;28;20431;-70
2022/09/23 09:05:29;;;;;;;4.70;3.53;;;15.40;60.00;;;;;;5023134;28;20431;-69
2022/09/23 09:08:00;;;;;;;4.95;3.30;;;15.40;59.70;;;;;;5023374;28;20510;-69
2022/09/23 09:10:35;;;;;;;3.50;3.20;;;15.40;60.30;;;;;;5025076;28;20482;-70
2022/09/23 09:13:06;;;;;;;3.50;3.20;;;15.30;60.10;;;;;;5028311;28;20419;-70
2022/09/23 09:15:42;;;;;;;4.50;3.50;;;15.30;60.40;;;;;;5016200;28;20425;-68
2022/09/23 09:18:18;;;;;;;3.97;2.83;;;15.40;60.20;;;;;;5022456;28;20429;-70
2022/09/23 09:20:55;;;;;;;5.10;3.20;;;15.50;60.60;;;;;;5027557;28;20487;-69
2022/09/23 09:23:26;;;;;;;3.40;3.10;;;15.60;60.20;;;;;;5021775;28;20492;-73
2022/09/23 09:25:57;;;;;;;5.13;3.00;;;15.90;59.90;;;;;;5017474;28;20447;-73
2022/09/23 09:28:29;;;;;;;3.13;2.83;;;16.10;58.70;;;;;;5009605;28;20427;-72
2022/09/23 09:30:59;;;;;;;3.28;2.83;;;16.20;58.20;;;;;;5027359;28;20421;-71
2022/09/23 09:33:31;;;;;;;3.28;2.90;;;16.50;58.30;;;;;;5024224;28;20427;-70
2022/09/23 09:36:18;;;;;;;3.22;2.83;;;16.60;57.00;;;;;;5013865;28;20439;-73
2022/09/23 09:38:46;;;;;;;4.88;2.80;;;16.60;56.40;;;;;;5025502;28;20427;-72
2022/09/23 09:41:16;;;;;;;3.30;3.00;;;16.60;56.40;;;;;;5028053;28;20478;-72
2022/09/23 09:43:51;;;;;;;3.28;2.90;;;16.90;55.20;;;;;;5028624;28;20431;-72
2022/09/23 09:46:56;;;;;;;3.67;3.00;;;17.10;55.40;;;;;;5024141;28;20451;-72
2022/09/23 09:49:29;;;;;;;4.20;3.03;;;17.40;54.60;;;;;;5001643;28;20432;-73
2022/09/23 09:52:15;;;;;;;7.00;6.30;;;17.80;54.00;;;;;;5021709;28;20443;-73
2022/09/23 09:54:44;;;;;;;5.30;4.20;;;18.30;52.30;;;;;;5037773;28;20458;-73
2022/09/23 09:57:19;;;;;;;4.10;3.80;;;18.50;51.60;;;;;;5043387;28;20416;-70
2022/09/23 09:59:53;;;;;;;4.82;3.80;;;18.70;50.20;;;;;;5036901;28;20501;-72
2022/09/23 10:02:26;;;;;;;3.72;3.42;;;18.60;49.80;;;;;;5045263;28;20426;-71
2022/09/23 10:04:57;;;;;;;3.80;3.50;;;18.50;50.00;;;;;;5037733;28;20596;-71
2022/09/23 10:07:28;;;;;;;4.68;3.30;;;18.50;51.50;;;;;;5034628;28;20431;-70
2022/09/23 10:09:55;;;;;;;3.87;3.30;;;18.70;50.60;;;;;;5034089;28;20576;-70
2022/09/23 10:12:23;;;;;;;5.13;2.90;;;18.90;50.70;;;;;;5034616;28;20476;-74
2022/09/23 10:14:55;;;;;;;5.07;2.90;;;18.90;48.50;;;;;;5037214;28;20469;-70
2022/09/23 10:17:24;;;;;;;4.35;2.60;;;19.10;49.40;;;;;;5034846;28;20431;-67
2022/09/23 10:19:59;;;;;;;4.78;2.50;;;19.40;48.20;;;;;;5047738;28;20409;-70
2022/09/23 10:22:31;;;;;;;2.80;2.10;;;19.80;48.00;;;;;;5043497;28;20443;-73
2022/09/23 10:25:02;;;;;;;3.00;2.20;;;20.20;46.00;;;;;;5025691;28;20436;-69
2022/09/23 10:27:31;;;;;;;4.10;1.92;;;20.40;44.60;;;;;;5026703;28;20432;-72
2022/09/23 10:30:02;;;;;;;2.40;2.20;;;20.20;45.10;;;;;;5035919;28;20472;-72
2022/09/23 10:32:31;;;;;;;3.80;2.30;;;20.10;45.50;;;;;;5021658;28;20422;-72
2022/09/23 10:35:02;;;;;;;3.10;2.10;;;20.00;45.90;;;;;;5030828;28;20511;-72
2022/09/23 10:37:36;;;;;;;3.72;2.40;;;20.10;46.00;;;;;;5025132;28;20417;-74
2022/09/23 10:49:04;;;;;;;3.90;2.50;;;20.10;46.00;;;;;;5026840;28;20563;-73
2022/09/23 10:51:39;;;;;;;4.63;2.30;;;20.20;47.70;;;;;;5032267;28;20492;-72
2022/09/23 10:54:17;;;;;;;2.83;2.33;;;20.20;45.80;;;;;;5032405;28;20426;-71
2022/09/23 10:56:48;;;;;;;2.30;2.00;;;20.30;45.10;;;;;;5018119;28;20942;-72
2022/09/23 10:59:40;;;;;;;2.20;1.80;;;20.20;44.90;;;;;;5016396;28;20792;-72
2022/09/23 11:02:32;;;;;;;2.10;1.80;;;20.30;45.20;;;;;;5017060;28;20435;-71
2022/09/23 11:05:15;;;;;;;2.40;2.20;;;20.50;45.50;;;;;;5027381;28;20431;-72
2022/09/23 11:07:48;;;;;;;3.13;2.00;;;20.70;43.50;;;;;;5031134;28;20474;-72
2022/09/23 11:10:53;;;;;;;2.92;2.20;;;20.80;43.30;;;;;;5022432;28;20421;-74
2022/09/23 11:13:35;;;;;;;2.08;1.98;;;20.60;43.90;;;;;;5016538;28;20427;-72
2022/09/23 11:16:09;;;;;;;2.38;2.17;;;20.70;44.80;;;;;;5031901;28;20427;-71
2022/09/23 11:19:07;;;;;;;3.58;2.70;;;20.70;44.30;;;;;;5029808;28;20414;-71
2022/09/23 11:21:50;;;;;;;4.43;2.15;;;20.70;42.80;;;;;;5019233;28;20834;-72
2022/09/23 11:24:34;;;;;;;2.35;2.15;;;20.40;44.30;;;;;;5020605;28;20506;-73
2022/09/23 11:27:12;;;;;;;3.70;2.30;;;20.30;44.50;;;;;;5027400;28;20422;-71
2022/09/23 11:30:06;;;;;;;3.20;2.10;;;20.30;44.90;;;;;;5024168;28;20431;-72
2022/09/23 11:32:54;;;;;;;2.70;2.40;;;20.20;45.20;;;;;;5018562;28;20419;-71
2022/09/23 11:35:27;;;;;;;3.30;2.30;;;20.20;44.60;;;;;;5023953;28;20431;-71
2022/09/23 11:38:01;;;;;;;2.50;2.20;;;20.30;44.90;;;;;;5030678;28;20423;-71
2022/09/23 11:40:32;;;;;;;2.30;2.10;;;20.30;44.50;;;;;;5032592;28;20503;-73
2022/09/23 11:43:06;;;;;;;2.72;1.92;;;20.20;45.30;;;;;;5041123;28;20425;-71
2022/09/23 11:45:36;;;;;;;2.60;2.30;;;20.10;45.40;;;;;;5017694;28;20476;-72
2022/09/23 11:48:08;;;;;;;3.07;1.90;;;20.10;45.90;;;;;;5026167;28;21051;-73
2022/09/23 11:50:40;;;;;;;2.40;1.90;;;20.10;44.80;;;;;;5020472;28;20434;-72
2022/09/23 11:53:12;;;;;;;2.63;1.80;;;20.30;45.50;;;;;;5028785;28;20418;-72
2022/09/23 11:55:44;;;;;;;2.97;1.80;;;20.40;44.60;;;;;;5029862;28;20419;-72
2022/09/23 11:58:17;;;;;;;2.15;1.60;;;20.50;44.00;;;;;;5021174;28;20434;-72
2022/09/23 12:00:49;;;;;;;2.00;1.73;;;20.60;44.00;;;;;;5024325;28;20494;-72
2022/09/23 12:03:23;;;;;;;4.57;2.00;;;20.70;43.10;;;;;;5017869;28;21074;-71
2022/09/23 12:05:58;;;;;;;3.43;1.80;;;20.80;43.20;;;;;;5029137;28;20435;-71
2022/09/23 12:08:28;;;;;;;2.47;1.70;;;21.00;42.20;;;;;;5021256;28;20440;-74
2022/09/23 12:11:02;;;;;;;2.03;1.65;;;21.20;42.80;;;;;;5012990;28;20462;-72
2022/09/23 12:13:39;;;;;;;2.58;1.52;;;21.40;41.70;;;;;;5028758;28;20427;-71
2022/09/23 12:16:30;;;;;;;2.72;1.80;;;21.40;42.10;;;;;;5016562;28;20425;-72
2022/09/23 12:19:09;;;;;;;1.90;1.80;;;21.30;41.30;;;;;;5028914;28;20810;-72
2022/09/23 12:21:56;;;;;;;2.42;1.65;;;21.20;41.40;;;;;;5025030;28;20426;-72
2022/09/23 12:24:50;;;;;;;2.58;1.40;;;21.10;40.30;;;;;;5016142;28;20810;-72
2022/09/23 12:27:24;;;;;;;3.03;1.70;;;20.90;41.80;;;;;;5004865;28;20848;-72
2022/09/23 12:29:56;;;;;;;3.03;1.83;;;20.80;41.50;;;;;;5009303;28;20794;-70
2022/09/23 12:32:24;;;;;;;2.90;1.60;;;20.80;42.00;;;;;;5008666;28;20461;-72
2022/09/23 12:34:51;;;;;;;2.75;1.80;;;20.80;41.40;;;;;;5020445;28;20906;-70
2022/09/23 12:37:26;;;;;;;3.53;1.90;;;20.70;41.50;;;;;;5023539;28;20896;-72
2022/09/23 12:39:54;;;;;;;3.80;1.88;;;20.70;42.00;;;;;;5013153;28;20491;-73
2022/09/23 12:42:23;;;;;;;2.30;1.80;;;20.70;41.70;;;;;;5021551;28;20427;-71
2022/09/23 12:44:50;;;;;;;2.88;1.80;;;20.70;41.90;;;;;;5020459;28;20442;-72
2022/09/23 12:47:37;;;;;;;3.17;2.00;;;20.70;41.30;;;;;;5021725;28;20435;-71
2022/09/23 12:50:37;;;;;;;4.30;2.53;;;20.90;41.90;;;;;;5017333;28;20439;-73
2022/09/23 12:53:52;;;;;;;5.32;2.58;;;21.10;41.20;;;;;;5016274;28;20427;-70
2022/09/23 12:56:49;;;;;;;1.98;1.60;;;21.20;41.70;;;;;;5020654;28;20434;-72
2022/09/23 12:59:26;;;;;;;3.70;1.60;;;21.30;40.90;;;;;;5026420;28;20428;-73
2022/09/23 13:01:53;;;;;;;2.17;1.60;;;21.40;40.40;;;;;;5039359;28;20475;-70
2022/09/23 13:07:33;;;;;;;3.95;2.20;;;21.40;40.30;;;;;;5006249;28;20458;-73
2022/09/23 13:10:08;;;;;;;4.35;1.98;;;21.50;38.50;;;;;;5039969;28;20422;-72
2022/09/23 13:12:40;;;;;;;2.30;1.70;;;21.40;39.30;;;;;;5023395;28;20539;-72
2022/09/23 13:15:17;;;;;;;2.53;1.50;;;21.50;39.60;;;;;;5030912;28;20467;-72
2022/09/23 13:17:44;;;;;;;3.03;1.58;;;21.50;39.40;;;;;;5027260;28;20435;-71
2022/09/23 13:20:37;;;;;;;2.50;1.60;;;21.40;39.90;;;;;;5023146;28;20435;-71
2022/09/23 13:23:17;;;;;;;1.88;1.67;;;21.20;39.60;;;;;;5026097;28;20438;-70
2022/09/23 13:25:44;;;;;;;3.72;1.83;;;21.10;40.00;;;;;;5034784;28;20471;-71